createdAt,value
2019-03-23T00:01:59.635Z,9.50
2019-03-23T00:04:31.065Z,9.70
2019-03-23T00:07:02.633Z,9.60
2019-03-23T00:09:52.640Z,9.60
2019-03-23T00:12:24.803Z,9.60
2019-03-23T00:14:56.302Z,9.60
2019-03-23T00:17:28.472Z,9.70
2019-03-23T00:22:48.384Z,9.60
2019-03-23T00:25:19.428Z,9.50
2019-03-23T00:27:50.597Z,9.50
2019-03-23T00:30:21.741Z,9.40
2019-03-23T00:32:52.942Z,9.40
2019-03-23T00:35:24.062Z,9.40
2019-03-23T00:37:55.177Z,9.40
2019-03-23T00:40:26.276Z,9.50
2019-03-23T00:42:57.429Z,9.60
2019-03-23T00:45:28.513Z,9.70
2019-03-23T00:47:59.689Z,9.70
2019-03-23T00:50:30.811Z,9.60
2019-03-23T00:53:02.928Z,9.60
2019-03-23T00:55:34.044Z,9.50
2019-03-23T00:58:05.127Z,9.50
2019-03-23T01:00:36.267Z,9.50
2019-03-23T01:03:07.381Z,9.60
2019-03-23T01:05:38.552Z,9.60
2019-03-23T01:08:09.695Z,9.60
2019-03-23T01:10:40.892Z,9.60
2019-03-23T01:13:12.039Z,9.60
2019-03-23T01:15:43.151Z,9.60
2019-03-23T01:18:14.260Z,9.60
2019-03-23T01:20:49.629Z,9.60
2019-03-23T01:23:18.182Z,9.60
2019-03-23T01:25:49.367Z,9.60
2019-03-23T01:28:20.537Z,9.60
2019-03-23T01:30:51.699Z,9.60
2019-03-23T01:33:22.845Z,9.60
2019-03-23T01:35:53.994Z,9.60
2019-03-23T01:38:25.185Z,9.60
2019-03-23T01:40:56.257Z,9.90
2019-03-23T01:43:27.462Z,9.70
2019-03-23T01:45:58.508Z,9.70
2019-03-23T01:48:29.779Z,9.60
2019-03-23T01:51:00.884Z,9.60
2019-03-23T01:53:32.052Z,9.50
2019-03-23T01:56:03.228Z,9.60
2019-03-23T01:58:34.350Z,9.60
2019-03-23T02:01:05.803Z,9.50
2019-03-23T02:03:37.050Z,9.50
2019-03-23T02:06:08.251Z,9.50
2019-03-23T02:08:39.547Z,9.50
2019-03-23T02:11:10.772Z,9.50
2019-03-23T02:13:41.920Z,9.60
2019-03-23T02:16:14.160Z,9.50
2019-03-23T02:18:45.384Z,9.60
2019-03-23T02:21:16.485Z,9.60
2019-03-23T02:23:47.644Z,9.60
2019-03-23T02:26:18.792Z,9.60
2019-03-23T02:28:49.948Z,9.60
2019-03-23T02:31:21.089Z,9.60
2019-03-23T02:33:52.153Z,9.60
2019-03-23T02:36:23.224Z,9.60
2019-03-23T02:38:54.398Z,9.60
2019-03-23T02:41:25.543Z,9.60
2019-03-23T02:43:56.635Z,9.60
2019-03-23T02:46:27.800Z,9.60
2019-03-23T02:48:58.922Z,9.70
2019-03-23T02:51:30.007Z,9.60
2019-03-23T02:54:01.159Z,9.60
2019-03-23T02:56:32.260Z,9.70
2019-03-23T02:59:03.392Z,9.70
2019-03-23T03:01:34.596Z,9.80
2019-03-23T03:04:05.818Z,9.80
2019-03-23T03:06:37.000Z,9.80
2019-03-23T03:09:08.422Z,9.80
2019-03-23T03:11:39.507Z,9.80
2019-03-23T03:14:10.717Z,9.80
2019-03-23T03:16:41.838Z,9.80
2019-03-23T03:19:12.931Z,9.80
2019-03-23T03:21:43.955Z,9.80
2019-03-23T03:24:15.012Z,9.90
2019-03-23T03:26:46.090Z,9.90
2019-03-23T03:29:17.119Z,9.90
2019-03-23T03:31:48.213Z,9.80
2019-03-23T03:37:01.182Z,9.80
2019-03-23T03:39:32.314Z,9.80
2019-03-23T03:42:03.425Z,9.80
2019-03-23T03:44:34.523Z,9.80
2019-03-23T03:47:05.560Z,9.80
2019-03-23T03:52:25.439Z,9.80
2019-03-23T03:54:56.546Z,9.70
2019-03-23T03:57:27.596Z,9.70
2019-03-23T03:59:58.768Z,9.80
2019-03-23T04:02:29.812Z,9.80
2019-03-23T04:05:00.925Z,9.80
2019-03-23T04:07:32.077Z,9.80
2019-03-23T04:10:03.167Z,9.90
2019-03-23T04:12:34.315Z,9.90
2019-03-23T04:15:05.839Z,9.80
2019-03-23T04:17:36.991Z,9.80
2019-03-23T04:20:08.594Z,9.80
2019-03-23T04:22:39.716Z,9.70
2019-03-23T04:25:11.130Z,9.70
2019-03-23T04:27:42.210Z,9.70
2019-03-23T04:30:14.323Z,9.70
2019-03-23T04:32:45.472Z,9.70
2019-03-23T04:35:16.531Z,9.70
2019-03-23T04:37:47.613Z,9.80
2019-03-23T04:40:19.885Z,9.80
2019-03-23T04:42:51.006Z,9.70
2019-03-23T04:45:22.017Z,9.80
2019-03-23T04:47:53.064Z,9.80
2019-03-23T04:50:24.089Z,9.80
2019-03-23T04:52:55.183Z,9.80
2019-03-23T04:58:01.949Z,9.80
2019-03-23T05:00:33.070Z,9.90
2019-03-23T05:03:04.162Z,9.80
2019-03-23T05:05:35.290Z,9.80
2019-03-23T05:08:06.292Z,9.70
2019-03-23T05:10:37.436Z,9.70
2019-03-23T05:13:08.479Z,9.80
2019-03-23T05:15:39.589Z,9.70
2019-03-23T05:18:10.707Z,9.70
2019-03-23T05:20:41.758Z,9.80
2019-03-23T05:23:12.779Z,9.70
2019-03-23T05:25:43.880Z,9.70
2019-03-23T05:28:14.923Z,9.70
2019-03-23T05:30:45.948Z,9.70
2019-03-23T05:33:17.044Z,9.70
2019-03-23T05:35:48.124Z,9.70
2019-03-23T05:38:19.154Z,9.70
2019-03-23T05:40:50.191Z,9.60
2019-03-23T05:43:21.285Z,9.60
2019-03-23T05:45:52.329Z,9.70
2019-03-23T05:48:23.408Z,9.70
2019-03-23T05:50:54.466Z,9.60
2019-03-23T05:53:25.552Z,9.60
2019-03-23T05:55:56.530Z,9.60
2019-03-23T05:58:27.625Z,9.60
2019-03-23T06:00:58.665Z,9.60
2019-03-23T06:03:29.703Z,9.60
2019-03-23T06:06:00.756Z,9.60
2019-03-23T06:08:31.795Z,9.60
2019-03-23T06:11:02.808Z,9.60
2019-03-23T06:13:33.819Z,9.60
2019-03-23T06:16:04.908Z,9.50
2019-03-23T06:18:35.991Z,9.60
2019-03-23T06:21:06.998Z,9.60
2019-03-23T06:23:38.031Z,9.50
2019-03-23T06:26:09.127Z,9.50
2019-03-23T06:28:40.216Z,9.50
2019-03-23T06:31:11.270Z,9.50
2019-03-23T06:33:42.373Z,9.50
2019-03-23T06:36:13.497Z,9.50
2019-03-23T06:38:44.467Z,9.50
2019-03-23T06:41:15.485Z,9.40
2019-03-23T06:43:46.535Z,9.50
2019-03-23T06:46:17.627Z,9.50
2019-03-23T06:48:48.717Z,9.50
2019-03-23T06:51:19.753Z,9.40
2019-03-23T06:56:26.036Z,9.40
2019-03-23T06:58:57.161Z,9.30
2019-03-23T07:01:28.148Z,9.30
2019-03-23T07:03:59.342Z,9.30
2019-03-23T07:06:30.337Z,9.40
2019-03-23T07:09:01.348Z,9.40
2019-03-23T07:11:33.429Z,9.40
2019-03-23T07:14:04.512Z,9.30
2019-03-23T07:16:35.599Z,9.20
2019-03-23T07:19:06.607Z,9.20
2019-03-23T07:21:37.695Z,9.20
2019-03-23T07:24:08.755Z,9.20
2019-03-23T07:26:39.868Z,9.20
2019-03-23T07:32:05.702Z,9.30
2019-03-23T07:34:33.800Z,9.20
2019-03-23T07:37:04.824Z,9.20
2019-03-23T07:39:35.936Z,9.30
2019-03-23T07:42:07.023Z,9.30
2019-03-23T07:44:38.119Z,9.30
2019-03-23T07:47:09.194Z,9.20
2019-03-23T07:49:40.254Z,9.20
2019-03-23T07:52:11.267Z,9.30
2019-03-23T07:54:42.396Z,9.40
2019-03-23T07:57:13.423Z,9.40
2019-03-23T07:59:44.477Z,9.50
2019-03-23T08:02:15.524Z,9.50
2019-03-23T08:04:46.677Z,9.60
2019-03-23T08:07:17.765Z,9.60
2019-03-23T08:09:48.850Z,9.60
2019-03-23T08:12:19.919Z,9.70
2019-03-23T08:14:50.986Z,9.70
2019-03-23T08:17:22.110Z,9.80
2019-03-23T08:19:54.210Z,9.90
2019-03-23T08:22:25.279Z,9.90
2019-03-23T08:24:56.388Z,9.90
2019-03-23T08:27:28.463Z,9.90
2019-03-23T08:30:00.566Z,9.90
2019-03-23T08:32:31.640Z,10.00
2019-03-23T08:35:02.755Z,10.20
2019-03-23T08:37:33.853Z,10.30
2019-03-23T08:40:05.352Z,10.50
2019-03-23T08:42:36.440Z,10.70
2019-03-23T08:45:07.774Z,10.80
2019-03-23T08:47:38.830Z,10.90
2019-03-23T08:50:10.449Z,11.00
2019-03-23T08:52:41.537Z,11.00
2019-03-23T08:55:12.606Z,11.10
2019-03-23T08:57:43.726Z,11.20
2019-03-23T09:00:14.790Z,11.00
2019-03-23T09:02:45.967Z,11.00
2019-03-23T09:05:16.982Z,11.10
2019-03-23T09:07:48.682Z,11.00
2019-03-23T09:10:20.108Z,11.00
2019-03-23T09:12:51.452Z,11.20
2019-03-23T09:15:22.521Z,11.20
2019-03-23T09:17:54.146Z,11.00
2019-03-23T09:20:25.192Z,11.10
2019-03-23T09:22:56.329Z,11.20
2019-03-23T09:25:27.478Z,11.20
2019-03-23T09:27:58.725Z,11.20
2019-03-23T09:30:29.827Z,11.30
2019-03-23T09:33:00.943Z,11.30
2019-03-23T09:35:32.088Z,11.20
2019-03-23T09:38:03.148Z,11.30
2019-03-23T09:40:34.331Z,11.20
2019-03-23T09:43:05.437Z,11.10
2019-03-23T09:45:36.524Z,11.00
2019-03-23T09:48:07.654Z,11.10
2019-03-23T09:50:38.739Z,11.10
2019-03-23T09:53:09.840Z,11.10
2019-03-23T09:55:40.901Z,11.00
2019-03-23T09:58:11.952Z,11.10
2019-03-23T10:00:43.037Z,11.10
2019-03-23T10:03:14.144Z,11.20
2019-03-23T10:05:45.251Z,11.10
2019-03-23T10:11:05.283Z,11.10
2019-03-23T10:13:36.357Z,11.20
2019-03-23T10:16:07.459Z,11.20
2019-03-23T10:18:38.535Z,11.30
2019-03-23T10:21:09.623Z,11.30
2019-03-23T10:23:40.683Z,11.30
2019-03-23T10:26:11.730Z,11.30
2019-03-23T10:28:43.592Z,11.30
2019-03-23T10:31:14.673Z,11.40
2019-03-23T10:33:45.704Z,11.70
2019-03-23T10:36:16.776Z,11.80
2019-03-23T10:38:47.826Z,11.80
2019-03-23T10:41:18.822Z,11.70
2019-03-23T10:43:49.867Z,12.00
2019-03-23T10:46:20.883Z,12.20
2019-03-23T10:48:51.998Z,12.30
2019-03-23T10:51:23.033Z,12.30
2019-03-23T10:53:54.136Z,12.30
2019-03-23T10:56:25.211Z,12.30
2019-03-23T10:58:56.311Z,12.40
2019-03-23T11:01:27.372Z,12.00
2019-03-23T11:03:58.464Z,12.40
2019-03-23T11:06:29.532Z,12.50
2019-03-23T11:09:00.607Z,12.50
2019-03-23T11:11:31.865Z,12.40
2019-03-23T11:14:02.892Z,12.40
2019-03-23T11:16:33.932Z,12.40
2019-03-23T11:19:13.259Z,12.40
2019-03-23T11:21:37.730Z,12.30
2019-03-23T11:24:08.832Z,12.30
2019-03-23T11:26:40.732Z,12.30
2019-03-23T11:29:11.803Z,12.30
2019-03-23T11:31:42.905Z,12.20
2019-03-23T11:34:17.751Z,12.30
2019-03-23T11:36:46.704Z,12.30
2019-03-23T11:39:17.823Z,12.30
2019-03-23T11:41:48.874Z,12.20
2019-03-23T11:44:19.927Z,12.10
2019-03-23T11:46:51.007Z,12.20
2019-03-23T11:49:22.050Z,12.30
2019-03-23T11:51:53.056Z,12.20
2019-03-23T11:54:24.143Z,11.90
2019-03-23T11:56:55.183Z,12.10
2019-03-23T11:59:26.211Z,12.20
2019-03-23T12:01:57.219Z,12.40
2019-03-23T12:04:28.252Z,12.30
2019-03-23T12:06:59.315Z,12.20
2019-03-23T12:09:30.330Z,11.70
2019-03-23T12:12:01.524Z,12.00
2019-03-23T12:14:32.571Z,12.10
2019-03-23T12:17:03.664Z,12.20
2019-03-23T12:19:34.758Z,12.30
2019-03-23T12:22:05.902Z,12.10
2019-03-23T12:24:36.966Z,12.40
2019-03-23T12:27:07.968Z,12.30
2019-03-23T12:29:38.975Z,12.20
2019-03-23T12:32:10.099Z,12.10
2019-03-23T12:38:03.628Z,12.00
2019-03-23T12:40:36.484Z,12.10
2019-03-23T12:43:07.709Z,12.50
2019-03-23T12:45:39.212Z,12.80
2019-03-23T12:50:52.884Z,12.90
2019-03-23T12:53:24.200Z,12.70
2019-03-23T12:55:55.804Z,12.70
2019-03-23T12:58:27.100Z,12.90
2019-03-23T13:00:58.469Z,13.10
2019-03-23T13:03:29.711Z,13.40
2019-03-23T13:06:01.068Z,13.60
2019-03-23T13:08:32.329Z,13.30
2019-03-23T13:11:03.739Z,13.40
2019-03-23T13:13:35.179Z,13.40
2019-03-23T13:16:06.887Z,13.30
2019-03-23T13:18:38.323Z,13.40
2019-03-23T13:21:09.435Z,13.40
2019-03-23T13:23:40.577Z,13.30
2019-03-23T13:28:54.307Z,13.50
2019-03-23T13:31:25.428Z,13.30
2019-03-23T13:33:56.515Z,13.30
2019-03-23T13:36:27.510Z,13.40
2019-03-23T13:38:58.666Z,13.20
2019-03-23T13:41:29.779Z,13.20
2019-03-23T13:44:00.903Z,13.20
2019-03-23T13:46:32.032Z,13.20
2019-03-23T13:49:03.141Z,13.20
2019-03-23T13:51:34.144Z,13.30
2019-03-23T13:54:05.327Z,13.20
2019-03-23T13:56:36.552Z,13.40
2019-03-23T13:59:07.644Z,13.60
2019-03-23T14:01:38.661Z,13.60
2019-03-23T14:04:09.784Z,13.70
2019-03-23T14:06:40.916Z,13.60
2019-03-23T14:09:12.060Z,13.70
2019-03-23T14:11:43.231Z,13.60
2019-03-23T14:14:14.403Z,13.40
2019-03-23T14:16:45.432Z,13.30
2019-03-23T14:19:16.599Z,13.40
2019-03-23T14:21:47.666Z,13.50
2019-03-23T14:24:18.752Z,13.70
2019-03-23T14:26:49.780Z,13.50
2019-03-23T14:29:20.797Z,13.40
2019-03-23T14:31:51.941Z,13.60
2019-03-23T14:34:23.096Z,13.60
2019-03-23T14:36:54.231Z,13.70
2019-03-23T14:39:25.381Z,13.70
2019-03-23T14:42:04.447Z,13.70
2019-03-23T14:44:29.108Z,13.70
2019-03-23T14:47:00.161Z,13.60
2019-03-23T14:49:31.272Z,13.70
2019-03-23T14:52:02.361Z,13.60
2019-03-23T14:54:33.468Z,13.60
2019-03-23T14:57:04.592Z,13.90
2019-03-23T14:59:35.699Z,13.90
2019-03-23T15:02:06.762Z,14.00
2019-03-23T15:04:37.967Z,14.10
2019-03-23T15:07:09.091Z,14.30
2019-03-23T15:09:40.087Z,14.30
2019-03-23T15:12:14.993Z,14.40
2019-03-23T15:14:43.903Z,14.40
2019-03-23T15:17:15.094Z,14.30
2019-03-23T15:19:46.189Z,14.00
2019-03-23T15:22:17.368Z,13.90
2019-03-23T15:24:48.439Z,14.30
2019-03-23T15:27:19.641Z,14.40
2019-03-23T15:29:50.684Z,14.10
2019-03-23T15:32:21.885Z,14.30
2019-03-23T15:34:52.899Z,14.40
2019-03-23T15:37:25.611Z,14.30
2019-03-23T15:39:56.692Z,14.20
2019-03-23T15:42:27.795Z,14.20
2019-03-23T15:44:58.820Z,14.40
2019-03-23T15:47:29.843Z,14.50
2019-03-23T15:50:00.949Z,14.90
2019-03-23T15:52:32.039Z,15.20
2019-03-23T15:55:03.490Z,15.20
2019-03-23T15:57:34.732Z,15.10
2019-03-23T16:00:07.216Z,14.90
2019-03-23T16:02:38.340Z,15.30
2019-03-23T16:05:09.752Z,14.60
2019-03-23T16:07:40.827Z,14.50
2019-03-23T16:10:12.995Z,14.30
2019-03-23T16:15:19.984Z,13.80
2019-03-23T16:17:51.047Z,13.60
2019-03-23T16:20:22.074Z,13.60
2019-03-23T16:22:53.156Z,13.40
2019-03-23T16:25:24.253Z,13.20
2019-03-23T16:30:37.773Z,13.10
2019-03-23T16:33:08.925Z,13.00
2019-03-23T16:35:40.014Z,12.80
2019-03-23T16:38:11.024Z,12.90
2019-03-23T16:40:42.044Z,12.80
2019-03-23T16:43:13.179Z,12.70
2019-03-23T16:45:44.206Z,12.70
2019-03-23T16:48:15.332Z,12.60
2019-03-23T16:50:46.420Z,12.60
2019-03-23T16:53:17.560Z,12.50
2019-03-23T16:55:48.643Z,12.40
2019-03-23T17:01:08.980Z,12.50
2019-03-23T17:03:40.087Z,12.50
2019-03-23T17:06:11.214Z,12.40
2019-03-23T17:08:42.332Z,12.40
2019-03-23T17:11:13.419Z,12.50
2019-03-23T17:13:44.476Z,12.40
2019-03-23T17:16:15.722Z,12.20
2019-03-23T17:18:46.850Z,12.30
2019-03-23T17:24:06.735Z,12.20
2019-03-23T17:26:37.872Z,12.10
2019-03-23T17:29:09.017Z,12.10
2019-03-23T17:31:40.131Z,12.20
2019-03-23T17:34:11.176Z,12.10
2019-03-23T17:36:43.038Z,12.00
2019-03-23T17:39:14.236Z,11.90
2019-03-23T17:41:45.820Z,11.90
2019-03-23T17:44:17.056Z,11.80
2019-03-23T17:46:48.152Z,11.70
2019-03-23T17:49:19.289Z,11.70
2019-03-23T17:51:50.388Z,11.60
2019-03-23T17:54:22.024Z,11.50
2019-03-23T17:56:54.014Z,11.40
2019-03-23T17:59:26.343Z,11.20
2019-03-23T18:01:57.501Z,11.10
2019-03-23T18:04:28.603Z,11.00
2019-03-23T18:06:59.798Z,10.90
2019-03-23T18:09:30.887Z,10.80
2019-03-23T18:12:02.280Z,10.80
2019-03-23T18:14:33.432Z,10.70
2019-03-23T18:17:04.651Z,10.70
2019-03-23T18:19:35.693Z,10.60
2019-03-23T18:22:06.825Z,10.40
2019-03-23T18:24:38.940Z,10.40
2019-03-23T18:27:10.091Z,10.40
2019-03-23T18:29:41.258Z,10.40
2019-03-23T18:32:12.402Z,10.30
2019-03-23T18:34:43.537Z,10.20
2019-03-23T18:37:14.703Z,10.10
2019-03-23T18:39:46.963Z,10.10
2019-03-23T18:42:18.126Z,10.10
2019-03-23T18:44:49.208Z,10.00
2019-03-23T18:47:20.399Z,10.00
2019-03-23T18:49:51.551Z,9.90
2019-03-23T18:52:22.701Z,9.90
2019-03-23T18:54:53.840Z,9.90
2019-03-23T18:57:25.007Z,9.80
2019-03-23T18:59:56.102Z,9.80
2019-03-23T19:02:27.216Z,9.80
2019-03-23T19:04:58.379Z,9.80
2019-03-23T19:07:29.481Z,9.80
2019-03-23T19:10:00.491Z,9.70
2019-03-23T19:12:31.664Z,9.70
2019-03-23T19:15:02.793Z,9.70
2019-03-23T19:17:33.989Z,9.60
2019-03-23T19:20:05.408Z,9.60
2019-03-23T19:22:36.586Z,9.60
2019-03-23T19:25:17.028Z,10.00
2019-03-23T19:27:40.611Z,9.50
2019-03-23T19:30:11.796Z,9.40
2019-03-23T19:32:42.952Z,9.40
2019-03-23T19:35:14.040Z,9.40
2019-03-23T19:37:45.202Z,9.30
2019-03-23T19:40:16.385Z,9.30
2019-03-23T19:42:47.469Z,9.30
2019-03-23T19:45:19.492Z,9.30
2019-03-23T19:47:50.697Z,9.20
2019-03-23T19:50:22.151Z,9.20
2019-03-23T19:52:53.149Z,9.20
2019-03-23T19:55:24.175Z,9.20
2019-03-23T19:57:55.264Z,9.20
2019-03-23T20:00:26.403Z,9.10
2019-03-23T20:02:57.548Z,9.10
2019-03-23T20:05:28.762Z,9.10
2019-03-23T20:07:59.889Z,9.10
2019-03-23T20:10:30.995Z,9.10
2019-03-23T20:13:02.259Z,9.10
2019-03-23T20:15:33.474Z,9.00
2019-03-23T20:18:05.773Z,9.00
2019-03-23T20:20:36.781Z,9.00
2019-03-23T20:23:07.848Z,8.90
2019-03-23T20:25:39.881Z,8.90
2019-03-23T20:28:11.121Z,8.90
2019-03-23T20:30:42.297Z,8.80
2019-03-23T20:33:19.235Z,8.80
2019-03-23T20:35:46.204Z,8.90
2019-03-23T20:38:17.280Z,8.80
2019-03-23T20:40:48.396Z,8.90
2019-03-23T20:43:19.923Z,8.90
2019-03-23T20:45:50.996Z,9.00
2019-03-23T20:48:22.381Z,8.80
2019-03-23T20:50:53.497Z,8.70
2019-03-23T20:53:24.902Z,8.60
2019-03-23T20:55:55.991Z,8.50
2019-03-23T20:58:27.080Z,8.50
2019-03-23T21:00:58.232Z,8.50
2019-03-23T21:03:29.336Z,8.50
2019-03-23T21:06:00.427Z,8.50
2019-03-23T21:11:20.627Z,8.50
2019-03-23T21:13:51.784Z,8.60
2019-03-23T21:16:22.911Z,8.60
2019-03-23T21:18:53.927Z,8.60
2019-03-23T21:21:25.040Z,8.60
2019-03-23T21:23:56.055Z,8.80
2019-03-23T21:26:27.180Z,8.80
2019-03-23T21:28:58.287Z,8.80
2019-03-23T21:31:29.432Z,8.70
2019-03-23T21:34:00.556Z,8.70
2019-03-23T21:36:31.623Z,8.60
2019-03-23T21:39:02.861Z,8.50
2019-03-23T21:41:35.564Z,8.40
2019-03-23T21:44:06.667Z,8.40
2019-03-23T21:46:37.845Z,8.30
2019-03-23T21:49:08.983Z,8.30
2019-03-23T21:51:40.119Z,8.40
2019-03-23T21:54:12.240Z,8.40
2019-03-23T21:56:44.247Z,8.40
2019-03-23T21:59:15.400Z,8.40
2019-03-23T22:01:46.503Z,8.40
2019-03-23T22:04:17.641Z,8.40
2019-03-23T22:06:48.678Z,8.30
2019-03-23T22:09:19.783Z,8.40
2019-03-23T22:11:50.891Z,8.40
2019-03-23T22:14:22.000Z,8.40
2019-03-23T22:16:53.071Z,8.20
2019-03-23T22:19:24.177Z,8.30
2019-03-23T22:21:55.294Z,8.40
2019-03-23T22:24:26.312Z,8.40
2019-03-23T22:26:57.435Z,8.40
2019-03-23T22:29:28.622Z,8.40
2019-03-23T22:31:59.628Z,8.40
2019-03-23T22:34:30.655Z,8.40
2019-03-23T22:37:01.798Z,8.50
2019-03-23T22:39:33.959Z,8.40
2019-03-23T22:42:05.163Z,8.40
2019-03-23T22:44:36.188Z,8.40
2019-03-23T22:47:07.244Z,8.50
2019-03-23T22:49:38.340Z,8.50
2019-03-23T22:52:09.483Z,8.50
2019-03-23T22:54:40.676Z,8.50
2019-03-23T22:57:11.804Z,8.40
2019-03-23T22:59:42.880Z,8.30
2019-03-23T23:02:13.912Z,8.30
2019-03-23T23:04:45.063Z,8.30
2019-03-23T23:07:16.277Z,8.30
2019-03-23T23:09:47.521Z,8.30
2019-03-23T23:12:18.592Z,8.20
2019-03-23T23:14:49.690Z,8.20
2019-03-23T23:17:20.951Z,8.20
2019-03-23T23:19:52.103Z,8.30
2019-03-23T23:22:23.307Z,8.30
2019-03-23T23:24:54.381Z,8.30
2019-03-23T23:27:25.500Z,8.30
2019-03-23T23:29:56.627Z,8.30
2019-03-23T23:32:27.757Z,8.40
2019-03-23T23:34:58.913Z,8.50
2019-03-23T23:37:30.089Z,8.50
2019-03-23T23:40:01.171Z,8.50
2019-03-23T23:42:32.291Z,8.40
2019-03-23T23:45:03.409Z,8.50
2019-03-23T23:47:34.637Z,8.50
2019-03-23T23:50:07.050Z,8.40
2019-03-23T23:52:39.094Z,8.30
2019-03-23T23:55:11.746Z,8.20
2019-03-23T23:57:43.697Z,8.10
